Time;durP1;ratioP1;P1;durP2;ratioP2;P2;SDS_P1;SDS_P2;PMS_P1;PMS_P2;Temp;Humidity;BMP_temperature;BMP_pressure;BME280_temperature;BME280_humidity;BME280_pressure;Samples;Min_cycle;Max_cycle;Signal;HPM_P1;HPM_P2
2022/06/12 00:00:11;;;;;;;10.30;8.20;;;;;;;;;;5004573;28;20478;-83
2022/06/12 00:02:37;;;;;;;16.37;8.10;;;;;;;;;;5005196;28;20444;-82
2022/06/12 00:05:06;;;;;;;13.57;8.57;;;;;;;;;;5007999;28;20460;-83
2022/06/12 00:07:32;;;;;;;16.30;7.37;;;;;;;;;;5006796;28;20532;-82
2022/06/12 00:09:58;;;;;;;16.53;7.50;;;;;;;;;;5006619;28;20452;-83
2022/06/12 00:12:25;;;;;;;12.53;7.07;;;;;;;;;;5007188;28;20479;-83
2022/06/12 00:14:51;;;;;;;11.10;5.87;;;;;;;;;;5007256;28;20579;-83
2022/06/12 00:17:17;;;;;;;11.70;6.13;;;;;;;;;;5008276;28;20461;-82
2022/06/12 00:19:44;;;;;;;10.73;5.40;;;;;;;;;;5008732;28;20504;-82
2022/06/12 00:22:12;;;;;;;10.27;4.77;;;;;;;;;;5009123;28;20441;-82
2022/06/12 00:24:38;;;;;;;9.07;5.10;;;;;;;;;;5008308;28;20482;-80
2022/06/12 00:27:05;;;;;;;12.87;5.50;;;;;;;;;;5008706;28;20469;-82
2022/06/12 00:29:32;;;;;;;14.00;6.30;;;;;;;;;;5009374;28;20470;-82
2022/06/12 00:32:01;;;;;;;13.40;6.10;;;;;;;;;;5009410;28;20454;-82
2022/06/12 00:34:29;;;;;;;18.30;6.30;;;;;;;;;;5009446;28;20459;-82
2022/06/12 00:36:56;;;;;;;15.70;7.00;;;;;;;;;;5006100;28;20433;-82
2022/06/12 00:39:24;;;;;;;12.60;5.80;;;;;;;;;;5007579;28;20885;-83
2022/06/12 00:41:51;;;;;;;10.23;5.73;;;;;;;;;;5007225;28;20433;-83
2022/06/12 00:44:19;;;;;;;15.37;6.53;;;;;;;;;;5006522;28;20504;-82
2022/06/12 00:46:47;;;;;;;11.73;6.50;;;;;;;;;;5006811;28;21186;-83
2022/06/12 00:49:15;;;;;;;19.83;7.70;;;;;;;;;;5007413;28;20544;-82
2022/06/12 00:51:42;;;;;;;15.37;6.73;;;;;;;;;;5008205;28;20461;-82
2022/06/12 00:54:09;;;;;;;15.97;6.60;;;;;;;;;;5007942;28;20477;-83
2022/06/12 00:56:38;;;;;;;15.23;6.50;;;;;;;;;;5008711;28;20460;-82
2022/06/12 00:59:09;;;;;;;18.83;8.17;;;;;;;;;;5007810;28;20998;-81
2022/06/12 01:01:36;;;;;;;14.23;6.70;;;;;;;;;;5007838;28;20452;-82
2022/06/12 01:06:48;;;;;;;13.70;6.90;;;;;;;;;;5009026;28;20432;-82
2022/06/12 01:09:17;;;;;;;15.93;7.50;;;;;;;;;;5006163;28;20540;-82
2022/06/12 01:11:47;;;;;;;12.77;7.87;;;;;;;;;;5008304;28;20432;-82
2022/06/12 01:14:15;;;;;;;15.13;8.37;;;;;;;;;;5008364;28;20484;-81
2022/06/12 01:16:45;;;;;;;10.90;7.13;;;;;;;;;;5007788;28;20523;-82
2022/06/12 01:19:13;;;;;;;12.37;6.03;;;;;;;;;;5007999;28;20490;-83
2022/06/12 01:22:00;;;;;;;16.20;6.30;;;;;;;;;;5005423;28;20467;-82
2022/06/12 01:24:44;;;;;;;24.60;6.97;;;;;;;;;;5001144;28;20563;-82
2022/06/12 01:27:28;;;;;;;12.93;6.10;;;;;;;;;;5007799;28;20465;-82
2022/06/12 01:29:59;;;;;;;11.13;5.73;;;;;;;;;;5007294;28;20493;-82
2022/06/12 01:32:28;;;;;;;9.97;5.80;;;;;;;;;;5005774;28;20505;-82
2022/06/12 01:34:58;;;;;;;9.07;5.03;;;;;;;;;;5006771;28;20512;-82
2022/06/12 01:37:29;;;;;;;10.50;5.63;;;;;;;;;;5006404;28;20440;-82
2022/06/12 01:40:00;;;;;;;13.33;5.83;;;;;;;;;;5008221;28;20481;-82
2022/06/12 01:42:28;;;;;;;10.60;6.70;;;;;;;;;;5006093;28;20819;-82
2022/06/12 01:45:02;;;;;;;10.10;6.17;;;;;;;;;;5005959;28;20494;-83
2022/06/12 01:47:33;;;;;;;14.03;5.80;;;;;;;;;;5007731;28;21001;-82
2022/06/12 01:50:03;;;;;;;14.50;6.20;;;;;;;;;;5007606;28;20474;-82
2022/06/12 01:52:33;;;;;;;11.60;6.37;;;;;;;;;;5011323;28;20458;-83
2022/06/12 01:55:02;;;;;;;21.60;6.40;;;;;;;;;;5009801;28;20474;-82
2022/06/12 01:57:33;;;;;;;13.53;5.40;;;;;;;;;;5009805;28;20466;-83
2022/06/12 02:00:03;;;;;;;13.83;6.07;;;;;;;;;;5009376;28;20581;-82
2022/06/12 02:02:32;;;;;;;11.73;6.10;;;;;;;;;;5010809;28;20472;-83
2022/06/12 02:05:02;;;;;;;10.93;5.40;;;;;;;;;;5007832;28;20540;-82
2022/06/12 02:07:29;;;;;;;10.90;5.40;;;;;;;;;;5009902;28;20531;-82
2022/06/12 02:09:59;;;;;;;10.90;5.80;;;;;;;;;;5007130;28;20485;-82
2022/06/12 02:15:18;;;;;;;13.10;5.47;;;;;;;;;;5008390;28;20543;-82
2022/06/12 02:17:47;;;;;;;14.03;6.13;;;;;;;;;;5009670;28;20466;-82
2022/06/12 02:20:15;;;;;;;14.47;5.27;;;;;;;;;;5005533;28;20477;-82
2022/06/12 02:22:43;;;;;;;14.30;5.77;;;;;;;;;;5009465;28;20546;-82
2022/06/12 02:25:11;;;;;;;11.63;5.70;;;;;;;;;;5007694;28;20482;-83
2022/06/12 02:27:40;;;;;;;7.40;5.27;;;;;;;;;;5009440;28;20468;-80
2022/06/12 02:30:09;;;;;;;8.63;5.40;;;;;;;;;;5008140;28;20484;-82
2022/06/12 02:32:38;;;;;;;12.23;7.70;;;;;;;;;;5010168;28;20470;-83
2022/06/12 02:35:07;;;;;;;15.40;6.07;;;;;;;;;;5007017;28;20875;-82
2022/06/12 02:37:36;;;;;;;11.90;6.73;;;;;;;;;;5006976;28;20462;-82
2022/06/12 02:40:05;;;;;;;8.30;5.57;;;;;;;;;;5008317;28;20482;-82
2022/06/12 02:42:34;;;;;;;10.27;5.20;;;;;;;;;;5006254;28;20474;-82
2022/06/12 02:45:02;;;;;;;13.23;5.40;;;;;;;;;;5008212;28;20484;-82
2022/06/12 02:47:30;;;;;;;9.47;6.03;;;;;;;;;;5008004;28;20968;-82
2022/06/12 02:49:59;;;;;;;13.47;5.60;;;;;;;;;;5008206;28;20525;-82
2022/06/12 02:52:29;;;;;;;15.90;5.37;;;;;;;;;;5005952;28;20990;-82
2022/06/12 02:54:59;;;;;;;10.60;4.90;;;;;;;;;;5005874;28;20478;-83
2022/06/12 02:57:30;;;;;;;15.70;5.47;;;;;;;;;;5008736;28;20466;-82
2022/06/12 03:00:04;;;;;;;8.43;5.17;;;;;;;;;;5006953;28;20478;-83
2022/06/12 03:02:34;;;;;;;12.60;5.43;;;;;;;;;;5009227;28;20473;-81
2022/06/12 03:05:07;;;;;;;11.20;6.73;;;;;;;;;;5006026;28;20470;-83
2022/06/12 03:07:33;;;;;;;12.00;5.80;;;;;;;;;;5005889;28;20463;-82
2022/06/12 03:10:02;;;;;;;8.87;4.60;;;;;;;;;;5006350;28;20630;-83
2022/06/12 03:12:28;;;;;;;8.90;4.63;;;;;;;;;;5008239;28;20474;-82
2022/06/12 03:14:55;;;;;;;12.33;6.30;;;;;;;;;;5006208;28;20485;-82
2022/06/12 03:17:22;;;;;;;13.53;4.97;;;;;;;;;;5006899;28;20520;-82
2022/06/12 03:19:50;;;;;;;12.27;5.30;;;;;;;;;;5005784;28;20485;-83
2022/06/12 03:22:22;;;;;;;8.40;5.63;;;;;;;;;;5006448;28;20462;-82
2022/06/12 03:24:53;;;;;;;7.57;4.77;;;;;;;;;;5003961;28;20481;-83
2022/06/12 03:27:32;;;;;;;13.33;6.00;;;;;;;;;;5008641;28;20981;-83
2022/06/12 03:30:04;;;;;;;9.77;5.80;;;;;;;;;;5007576;28;20819;-82
2022/06/12 03:32:32;;;;;;;8.23;5.37;;;;;;;;;;5008014;28;20469;-82
2022/06/12 03:35:03;;;;;;;8.90;4.70;;;;;;;;;;5005697;28;20490;-82
2022/06/12 03:37:36;;;;;;;12.10;5.93;;;;;;;;;;5009762;28;20449;-82
2022/06/12 03:40:05;;;;;;;10.50;4.70;;;;;;;;;;5005639;28;20501;-82
2022/06/12 03:42:34;;;;;;;10.60;5.90;;;;;;;;;;5007239;28;20462;-82
2022/06/12 03:45:03;;;;;;;9.27;5.13;;;;;;;;;;5005272;28;20481;-82
2022/06/12 03:47:32;;;;;;;10.67;5.87;;;;;;;;;;5007820;28;20470;-82
2022/06/12 03:50:02;;;;;;;10.20;4.53;;;;;;;;;;5006139;28;20481;-82
2022/06/12 03:52:31;;;;;;;12.30;5.73;;;;;;;;;;5007573;28;20465;-83
2022/06/12 03:55:00;;;;;;;12.90;5.03;;;;;;;;;;5006588;28;20484;-83
2022/06/12 04:00:17;;;;;;;9.27;5.13;;;;;;;;;;5005821;28;20528;-82
2022/06/12 04:02:44;;;;;;;9.60;5.93;;;;;;;;;;5006497;28;20521;-83
2022/06/12 04:05:15;;;;;;;7.50;5.10;;;;;;;;;;5004542;28;20521;-83
2022/06/12 04:07:46;;;;;;;9.37;5.50;;;;;;;;;;5003724;28;20516;-83
2022/06/12 04:10:17;;;;;;;13.77;5.97;;;;;;;;;;5005012;28;20509;-82
2022/06/12 04:12:44;;;;;;;12.83;5.80;;;;;;;;;;5001594;28;20916;-83
2022/06/12 04:15:14;;;;;;;9.50;5.10;;;;;;;;;;5019664;23;20493;-81
2022/06/12 04:17:40;;;;;;;15.80;5.70;;;;;;;;;;5032513;28;20476;-80
2022/06/12 04:20:12;;;;;;;11.40;5.53;;;;;;;;;;5033548;28;20500;-82
2022/06/12 04:22:43;;;;;;;11.50;5.40;;;;;;;;;;5027475;28;20568;-81
2022/06/12 04:25:20;;;;;;;13.27;6.23;;;;;;;;;;5012651;28;20539;-82
2022/06/12 04:27:50;;;;;;;12.37;4.83;;;;;;;;;;5006673;28;20841;-81
2022/06/12 04:30:19;;;;;;;9.90;5.40;;;;;;;;;;5012437;28;20485;-81
2022/06/12 04:32:45;;;;;;;14.63;6.37;;;;;;;;;;5012365;28;20481;-81
2022/06/12 04:35:15;;;;;;;13.27;6.00;;;;;;;;;;5017940;28;20477;-80
2022/06/12 04:37:42;;;;;;;12.50;6.63;;;;;;;;;;5015379;28;20469;-79
2022/06/12 04:40:15;;;;;;;15.00;6.20;;;;;;;;;;5013097;28;20473;-80
2022/06/12 04:42:42;;;;;;;11.20;5.73;;;;;;;;;;5011173;28;20569;-81
2022/06/12 04:45:12;;;;;;;14.90;5.60;;;;;;;;;;5011400;28;20481;-79
2022/06/12 04:47:39;;;;;;;12.10;6.70;;;;;;;;;;5012841;28;20461;-79
2022/06/12 04:50:06;;;;;;;18.73;6.47;;;;;;;;;;5015578;28;20480;-81
2022/06/12 04:52:33;;;;;;;14.20;6.60;;;;;;;;;;5014085;28;20496;-82
2022/06/12 04:54:59;;;;;;;14.27;6.37;;;;;;;;;;5010085;28;20473;-82
2022/06/12 04:57:25;;;;;;;22.63;6.93;;;;;;;;;;5013120;28;20470;-82
2022/06/12 04:59:53;;;;;;;15.60;7.57;;;;;;;;;;5010046;28;20552;-80
2022/06/12 05:02:19;;;;;;;20.90;6.30;;;;;;;;;;5012329;28;20466;-83
2022/06/12 05:04:45;;;;;;;14.33;5.60;;;;;;;;;;5012285;28;20497;-81
2022/06/12 05:07:13;;;;;;;19.40;8.43;;;;;;;;;;5016182;28;20436;-79
2022/06/12 05:09:40;;;;;;;21.60;6.53;;;;;;;;;;5010698;28;20486;-80
2022/06/12 05:12:07;;;;;;;15.40;5.80;;;;;;;;;;5011801;28;20477;-79
2022/06/12 05:14:34;;;;;;;17.37;6.50;;;;;;;;;;5017638;28;20477;-79
2022/06/12 05:17:03;;;;;;;14.03;6.37;;;;;;;;;;5012665;28;20992;-78
2022/06/12 05:19:30;;;;;;;13.03;7.23;;;;;;;;;;5010183;28;20469;-79
2022/06/12 05:21:57;;;;;;;26.50;7.40;;;;;;;;;;5014786;28;20469;-80
2022/06/12 05:24:23;;;;;;;15.07;6.73;;;;;;;;;;5016016;28;20484;-81
2022/06/12 05:26:50;;;;;;;12.53;5.40;;;;;;;;;;5013386;28;20814;-79
2022/06/12 05:29:24;;;;;;;19.03;7.07;;;;;;;;;;5018044;28;20464;-79
2022/06/12 05:31:52;;;;;;;14.03;6.00;;;;;;;;;;5018452;28;20484;-79
2022/06/12 05:34:20;;;;;;;13.17;7.13;;;;;;;;;;5015427;28;20572;-81
2022/06/12 05:36:47;;;;;;;17.27;5.87;;;;;;;;;;5020101;28;21024;-77
2022/06/12 05:39:14;;;;;;;14.33;5.87;;;;;;;;;;5015610;28;20480;-79
2022/06/12 05:41:44;;;;;;;12.87;5.63;;;;;;;;;;5011007;28;20463;-79
2022/06/12 05:44:11;;;;;;;17.43;6.07;;;;;;;;;;5021864;28;20452;-80
2022/06/12 05:46:37;;;;;;;17.30;6.50;;;;;;;;;;5018322;28;20469;-81
2022/06/12 05:49:03;;;;;;;8.70;5.03;;;;;;;;;;5013331;28;20472;-78
2022/06/12 05:51:31;;;;;;;18.60;5.70;;;;;;;;;;5022023;28;20496;-79
2022/06/12 05:53:57;;;;;;;10.50;5.43;;;;;;;;;;5016209;28;20444;-80
2022/06/12 05:56:25;;;;;;;23.67;6.47;;;;;;;;;;5020909;28;20442;-80
2022/06/12 05:58:51;;;;;;;20.57;6.20;;;;;;;;;;5018386;28;20431;-82
2022/06/12 06:01:19;;;;;;;19.10;6.90;;;;;;;;;;5015256;28;20431;-79
2022/06/12 06:03:46;;;;;;;17.50;6.50;;;;;;;;;;5018414;28;20460;-80
2022/06/12 06:06:15;;;;;;;18.50;6.60;;;;;;;;;;5018770;28;20464;-80
2022/06/12 06:08:42;;;;;;;16.00;5.53;;;;;;;;;;5021771;28;20460;-81
2022/06/12 06:11:09;;;;;;;15.53;5.57;;;;;;;;;;5018305;28;20496;-80
2022/06/12 06:13:37;;;;;;;26.07;7.00;;;;;;;;;;5014032;28;20452;-81
2022/06/12 06:16:03;;;;;;;12.93;4.93;;;;;;;;;;5015529;28;20474;-81
2022/06/12 06:18:30;;;;;;;15.43;5.50;;;;;;;;;;5019366;28;20432;-80
2022/06/12 06:20:56;;;;;;;12.50;4.77;;;;;;;;;;5016779;28;20455;-80
2022/06/12 06:23:23;;;;;;;16.93;5.50;;;;;;;;;;5020266;28;20459;-80
2022/06/12 06:25:53;;;;;;;13.97;5.13;;;;;;;;;;5016719;28;20481;-80
2022/06/12 06:28:19;;;;;;;13.70;4.60;;;;;;;;;;5013977;28;20465;-80
2022/06/12 06:30:45;;;;;;;12.10;4.33;;;;;;;;;;5015447;28;20485;-80
2022/06/12 06:33:12;;;;;;;14.57;5.73;;;;;;;;;;5018265;28;20827;-80
2022/06/12 06:35:39;;;;;;;11.47;5.10;;;;;;;;;;5018663;28;21016;-82
2022/06/12 06:38:05;;;;;;;13.17;4.70;;;;;;;;;;5015724;28;20453;-81
2022/06/12 06:40:32;;;;;;;14.40;4.70;;;;;;;;;;5015339;28;20477;-81
2022/06/12 06:43:00;;;;;;;13.50;5.13;;;;;;;;;;5014003;28;20492;-80
2022/06/12 06:48:13;;;;;;;24.10;5.70;;;;;;;;;;5019613;28;20455;-80
2022/06/12 06:50:40;;;;;;;13.60;4.67;;;;;;;;;;5022001;28;20480;-81
2022/06/12 06:53:06;;;;;;;25.90;5.13;;;;;;;;;;5017061;28;22682;-80
2022/06/12 06:55:33;;;;;;;12.03;5.20;;;;;;;;;;5016907;28;23080;-80
2022/06/12 06:58:04;;;;;;;17.27;4.63;;;;;;;;;;5016304;28;20469;-81
2022/06/12 07:00:32;;;;;;;11.20;4.00;;;;;;;;;;5014992;28;20485;-81
2022/06/12 07:02:59;;;;;;;19.43;5.07;;;;;;;;;;5009321;28;20532;-80
2022/06/12 07:05:26;;;;;;;15.17;4.30;;;;;;;;;;5019158;28;20601;-81
2022/06/12 07:07:52;;;;;;;11.43;4.70;;;;;;;;;;5013468;28;20453;-81
2022/06/12 07:10:20;;;;;;;12.40;4.00;;;;;;;;;;5015315;28;21011;-80
2022/06/12 07:12:47;;;;;;;12.67;4.30;;;;;;;;;;5014673;28;20542;-81
2022/06/12 07:15:15;;;;;;;17.60;4.40;;;;;;;;;;5014965;28;20485;-80
2022/06/12 07:17:42;;;;;;;11.67;3.50;;;;;;;;;;5014738;28;20472;-82
2022/06/12 07:20:09;;;;;;;7.90;3.70;;;;;;;;;;5009152;28;20477;-81
2022/06/12 07:22:36;;;;;;;17.60;4.60;;;;;;;;;;5015494;28;21101;-79
2022/06/12 07:25:02;;;;;;;13.20;5.17;;;;;;;;;;5014920;28;20948;-80
2022/06/12 07:27:32;;;;;;;8.20;2.93;;;;;;;;;;5012662;28;20473;-83
2022/06/12 07:29:58;;;;;;;10.77;3.40;;;;;;;;;;5011023;28;20485;-80
2022/06/12 07:32:26;;;;;;;11.10;3.67;;;;;;;;;;5018720;28;20471;-79
2022/06/12 07:34:53;;;;;;;7.13;4.80;;;;;;;;;;5014156;28;20472;-81
2022/06/12 07:37:19;;;;;;;12.03;4.10;;;;;;;;;;5018563;28;20943;-80
2022/06/12 07:39:46;;;;;;;10.00;3.50;;;;;;;;;;5016677;28;20762;-81
2022/06/12 07:42:12;;;;;;;14.00;3.67;;;;;;;;;;5017127;28;21012;-81
2022/06/12 07:44:40;;;;;;;9.23;3.50;;;;;;;;;;5009954;28;20470;-82
2022/06/12 07:47:07;;;;;;;11.00;3.70;;;;;;;;;;5016103;28;20461;-81
2022/06/12 07:49:35;;;;;;;7.37;3.47;;;;;;;;;;5017788;28;20472;-80
2022/06/12 07:52:05;;;;;;;5.70;2.90;;;;;;;;;;5016572;28;20485;-81
2022/06/12 07:54:32;;;;;;;10.23;3.47;;;;;;;;;;5019327;28;20482;-80
2022/06/12 07:56:59;;;;;;;11.83;3.23;;;;;;;;;;5017268;28;20475;-81
2022/06/12 07:59:25;;;;;;;10.00;3.30;;;;;;;;;;5015015;28;20470;-80
2022/06/12 08:01:53;;;;;;;9.93;4.57;;;;;;;;;;5010815;28;20464;-80
2022/06/12 08:04:20;;;;;;;13.93;5.13;;;;;;;;;;5022463;28;20529;-82
2022/06/12 08:06:48;;;;;;;11.80;3.90;;;;;;;;;;5020215;28;20441;-81
2022/06/12 08:09:15;;;;;;;8.40;3.67;;;;;;;;;;5017351;28;20975;-82
2022/06/12 08:11:42;;;;;;;10.33;3.63;;;;;;;;;;5020378;28;20487;-81
2022/06/12 08:14:09;;;;;;;9.80;4.00;;;;;;;;;;5015701;28;20848;-82
2022/06/12 08:16:36;;;;;;;11.33;3.67;;;;;;;;;;5014436;28;20473;-82
2022/06/12 08:19:02;;;;;;;8.30;3.83;;;;;;;;;;5016959;28;20469;-82
2022/06/12 08:21:28;;;;;;;8.33;3.50;;;;;;;;;;5019710;28;20450;-81
2022/06/12 08:23:57;;;;;;;15.03;4.10;;;;;;;;;;5015643;28;20472;-80
2022/06/12 08:26:25;;;;;;;8.13;3.63;;;;;;;;;;5014214;28;20456;-80
2022/06/12 08:28:53;;;;;;;8.97;3.40;;;;;;;;;;5017237;28;20445;-81
2022/06/12 08:31:22;;;;;;;11.23;3.87;;;;;;;;;;5019773;28;21075;-81
2022/06/12 08:33:50;;;;;;;12.47;3.80;;;;;;;;;;5007327;28;20485;-81
2022/06/12 08:36:18;;;;;;;10.73;3.03;;;;;;;;;;5013367;28;20462;-81
2022/06/12 08:38:44;;;;;;;10.80;3.00;;;;;;;;;;5015661;28;20451;-80
2022/06/12 08:41:16;;;;;;;8.60;3.57;;;;;;;;;;5011282;28;20464;-81
2022/06/12 08:43:46;;;;;;;5.83;2.50;;;;;;;;;;5011396;28;20492;-81
2022/06/12 08:46:18;;;;;;;14.17;3.13;;;;;;;;;;5009234;28;21127;-80
2022/06/12 08:48:48;;;;;;;6.43;3.33;;;;;;;;;;5009198;28;20844;-81
2022/06/12 08:51:18;;;;;;;8.77;3.57;;;;;;;;;;5009677;28;20490;-81
2022/06/12 08:53:47;;;;;;;6.50;3.20;;;;;;;;;;5014231;28;20515;-82
2022/06/12 08:56:19;;;;;;;9.47;2.20;;;;;;;;;;5013844;28;20483;-82
2022/06/12 08:58:49;;;;;;;12.87;3.60;;;;;;;;;;5016845;28;21433;-82
2022/06/12 09:01:15;;;;;;;10.00;2.60;;;;;;;;;;5013726;28;20457;-80
2022/06/12 09:03:44;;;;;;;6.27;2.90;;;;;;;;;;5015404;28;20476;-81
2022/06/12 09:06:15;;;;;;;6.00;2.83;;;;;;;;;;5012462;28;20457;-81
2022/06/12 09:08:46;;;;;;;13.60;3.30;;;;;;;;;;5012573;28;20453;-82
2022/06/12 09:11:16;;;;;;;5.70;2.57;;;;;;;;;;5016172;28;21046;-81
2022/06/12 09:13:48;;;;;;;10.50;2.73;;;;;;;;;;5012857;28;20517;-83
2022/06/12 09:16:19;;;;;;;7.30;3.33;;;;;;;;;;5013740;28;20967;-81
2022/06/12 09:18:50;;;;;;;10.33;4.07;;;;;;;;;;5013598;28;21047;-82
2022/06/12 09:21:19;;;;;;;7.90;2.60;;;;;;;;;;5006475;28;20476;-78
2022/06/12 09:23:53;;;;;;;12.80;3.37;;;;;;;;;;5006073;28;20485;-81
2022/06/12 09:26:28;;;;;;;7.87;2.60;;;;;;;;;;5020672;28;20460;-81
2022/06/12 09:29:01;;;;;;;12.37;3.20;;;;;;;;;;5016750;28;20529;-79
2022/06/12 09:31:30;;;;;;;6.03;2.80;;;;;;;;;;5012562;28;20481;-81
2022/06/12 09:34:00;;;;;;;10.53;3.57;;;;;;;;;;5017106;28;20485;-81
2022/06/12 09:36:34;;;;;;;9.00;2.80;;;;;;;;;;5011531;28;20477;-81
2022/06/12 09:39:04;;;;;;;6.57;2.93;;;;;;;;;;5014952;28;20476;-82
2022/06/12 09:41:37;;;;;;;10.93;2.97;;;;;;;;;;5013766;28;20487;-82
2022/06/12 09:44:11;;;;;;;10.50;3.77;;;;;;;;;;5015001;28;20482;-80
2022/06/12 09:46:40;;;;;;;11.13;2.97;;;;;;;;;;5010096;28;20479;-83
2022/06/12 09:49:12;;;;;;;9.40;3.50;;;;;;;;;;5009982;28;20460;-82
2022/06/12 09:51:51;;;;;;;8.60;3.13;;;;;;;;;;5010176;28;20472;-81
2022/06/12 09:54:36;;;;;;;13.30;3.17;;;;;;;;;;5015554;28;20449;-81
2022/06/12 09:57:07;;;;;;;7.10;2.13;;;;;;;;;;5003912;28;20469;-82
2022/06/12 09:59:35;;;;;;;9.30;3.20;;;;;;;;;;5015586;28;20461;-82
2022/06/12 10:02:05;;;;;;;9.93;3.50;;;;;;;;;;5014151;28;20465;-81
2022/06/12 10:04:37;;;;;;;7.40;2.70;;;;;;;;;;5017522;28;20457;-82
2022/06/12 10:07:06;;;;;;;9.40;3.30;;;;;;;;;;5013830;28;20464;-84
2022/06/12 10:09:37;;;;;;;7.43;2.67;;;;;;;;;;5012276;28;20459;-82
2022/06/12 10:12:06;;;;;;;12.33;4.00;;;;;;;;;;5015523;28;20484;-85
2022/06/12 10:14:34;;;;;;;9.70;3.00;;;;;;;;;;5018569;28;20963;-84
2022/06/12 10:17:02;;;;;;;8.30;3.00;;;;;;;;;;5029165;22;20504;-80
2022/06/12 10:19:31;;;;;;;10.83;3.17;;;;;;;;;;5020541;28;20511;-82
2022/06/12 10:22:00;;;;;;;10.73;2.97;;;;;;;;;;5023555;28;20512;-81
2022/06/12 10:24:26;;;;;;;11.47;2.63;;;;;;;;;;5023270;28;20461;-80
2022/06/12 10:26:55;;;;;;;9.40;3.40;;;;;;;;;;5009364;28;20540;-79
2022/06/12 10:29:24;;;;;;;7.07;3.00;;;;;;;;;;5002240;28;20490;-79
2022/06/12 10:31:58;;;;;;;7.93;3.30;;;;;;;;;;5004649;28;20854;-80
2022/06/12 10:34:28;;;;;;;9.93;3.10;;;;;;;;;;5003152;28;20470;-80
2022/06/12 10:36:54;;;;;;;13.73;3.63;;;;;;;;;;5002917;28;20489;-81
2022/06/12 10:39:22;;;;;;;11.43;3.17;;;;;;;;;;5004457;28;20454;-81
2022/06/12 10:41:49;;;;;;;5.73;2.93;;;;;;;;;;5003239;28;20466;-79
2022/06/12 10:44:43;;;;;;;5.80;3.17;;;;;;;;;;5003535;28;20459;-80
2022/06/12 10:47:22;;;;;;;7.07;2.60;;;;;;;;;;4969649;28;20536;-81
2022/06/12 10:49:48;;;;;;;10.30;3.07;;;;;;;;;;5005221;28;20473;-81
2022/06/12 10:52:16;;;;;;;8.43;3.50;;;;;;;;;;5003048;28;20504;-82
2022/06/12 10:54:42;;;;;;;8.10;3.00;;;;;;;;;;5004262;28;20478;-80
2022/06/12 10:57:16;;;;;;;8.50;4.40;;;;;;;;;;5003114;28;20512;-81
2022/06/12 10:59:46;;;;;;;8.80;3.07;;;;;;;;;;5004826;28;20474;-80
2022/06/12 11:02:27;;;;;;;4.63;2.50;;;;;;;;;;5004449;28;20829;-80
2022/06/12 11:05:00;;;;;;;9.20;3.23;;;;;;;;;;5004119;28;20477;-82
2022/06/12 11:07:31;;;;;;;4.87;2.70;;;;;;;;;;5004542;28;20598;-83
2022/06/12 11:10:02;;;;;;;8.73;2.80;;;;;;;;;;5003950;28;20513;-82
2022/06/12 11:12:34;;;;;;;7.73;3.27;;;;;;;;;;5004168;28;20482;-84
2022/06/12 11:15:07;;;;;;;10.30;3.37;;;;;;;;;;5000509;28;20482;-81
2022/06/12 11:17:41;;;;;;;10.87;3.60;;;;;;;;;;5003702;28;20497;-80
2022/06/12 11:20:17;;;;;;;7.17;3.13;;;;;;;;;;5002942;28;20478;-82
2022/06/12 11:22:46;;;;;;;8.63;4.03;;;;;;;;;;5003567;28;20488;-80
2022/06/12 11:25:23;;;;;;;9.20;3.20;;;;;;;;;;5004279;28;20473;-80
2022/06/12 11:27:55;;;;;;;8.60;3.13;;;;;;;;;;5002125;28;20488;-82
2022/06/12 11:30:26;;;;;;;5.57;3.20;;;;;;;;;;5001459;28;20491;-79
2022/06/12 11:33:03;;;;;;;7.60;3.10;;;;;;;;;;5002396;28;20836;-83
2022/06/12 11:35:34;;;;;;;9.57;2.70;;;;;;;;;;5005166;28;20486;-80
2022/06/12 11:38:07;;;;;;;8.57;3.50;;;;;;;;;;5004639;28;20465;-81
2022/06/12 11:40:37;;;;;;;6.70;2.87;;;;;;;;;;5003748;28;20532;-81
2022/06/12 11:43:09;;;;;;;7.50;3.20;;;;;;;;;;5003948;28;20474;-81
2022/06/12 11:45:42;;;;;;;15.17;3.77;;;;;;;;;;5004359;28;20490;-83
2022/06/12 11:48:24;;;;;;;7.20;3.57;;;;;;;;;;5002329;28;20458;-81
2022/06/12 11:50:53;;;;;;;9.97;3.57;;;;;;;;;;5004999;28;20570;-82
2022/06/12 11:53:28;;;;;;;10.70;3.00;;;;;;;;;;5005538;28;20482;-81
2022/06/12 11:55:57;;;;;;;8.40;2.73;;;;;;;;;;5005232;28;20662;-83
2022/06/12 11:58:35;;;;;;;10.30;3.53;;;;;;;;;;5006671;28;20449;-79
2022/06/12 12:01:05;;;;;;;8.43;3.10;;;;;;;;;;5002788;28;20568;-82
2022/06/12 12:03:58;;;;;;;13.13;3.60;;;;;;;;;;5003093;28;20461;-81
2022/06/12 12:06:34;;;;;;;7.03;3.20;;;;;;;;;;5004294;28;20493;-80
2022/06/12 12:09:08;;;;;;;5.57;3.30;;;;;;;;;;5004939;28;20881;-81
2022/06/12 12:11:36;;;;;;;6.40;3.00;;;;;;;;;;5005441;28;20575;-82
2022/06/12 12:14:04;;;;;;;10.03;3.80;;;;;;;;;;5005005;28;20473;-82
2022/06/12 12:16:36;;;;;;;7.93;2.83;;;;;;;;;;5003543;28;20859;-81
2022/06/12 12:19:07;;;;;;;5.37;2.23;;;;;;;;;;5002912;28;20500;-78
2022/06/12 12:21:36;;;;;;;7.53;2.90;;;;;;;;;;5002646;28;20485;-82
2022/06/12 12:24:05;;;;;;;10.30;3.20;;;;;;;;;;4998167;28;20565;-82
2022/06/12 12:26:33;;;;;;;4.77;2.40;;;;;;;;;;5003492;28;20475;-83
2022/06/12 12:29:01;;;;;;;6.10;2.10;;;;;;;;;;5004297;28;20457;-83
2022/06/12 12:31:28;;;;;;;7.57;2.40;;;;;;;;;;5004071;28;20477;-82
2022/06/12 12:33:55;;;;;;;5.70;2.70;;;;;;;;;;5004432;28;20887;-81
2022/06/12 12:42:06;;;;;;;6.90;2.57;;;;;;;;;;5003971;28;20481;-81
2022/06/12 12:44:33;;;;;;;6.90;2.03;;;;;;;;;;5002630;28;20497;-81
2022/06/12 12:46:59;;;;;;;7.67;2.37;;;;;;;;;;5004289;28;20473;-82
2022/06/12 12:49:27;;;;;;;4.00;2.13;;;;;;;;;;5002415;28;21061;-81
2022/06/12 12:52:04;;;;;;;8.87;2.60;;;;;;;;;;5003963;28;20489;-80
2022/06/12 12:54:41;;;;;;;8.10;2.80;;;;;;;;;;5001698;28;20441;-81
2022/06/12 12:57:07;;;;;;;5.20;3.20;;;;;;;;;;5003827;28;20486;-82
2022/06/12 12:59:37;;;;;;;3.10;1.77;;;;;;;;;;5000588;28;20466;-81
2022/06/12 13:02:15;;;;;;;9.53;2.70;;;;;;;;;;5002832;28;20445;-80
2022/06/12 13:04:41;;;;;;;7.47;3.50;;;;;;;;;;5004685;28;20472;-80
2022/06/12 13:07:14;;;;;;;5.27;2.90;;;;;;;;;;5002172;28;20508;-80
2022/06/12 13:09:51;;;;;;;8.53;3.67;;;;;;;;;;5000418;28;20477;-81
2022/06/12 13:12:32;;;;;;;7.27;2.90;;;;;;;;;;5002477;28;20485;-82
2022/06/12 13:15:11;;;;;;;9.50;3.00;;;;;;;;;;4998175;28;20895;-82
2022/06/12 13:17:44;;;;;;;6.67;2.80;;;;;;;;;;5002773;28;20860;-83
2022/06/12 13:20:28;;;;;;;6.70;2.73;;;;;;;;;;4999117;28;20486;-82
2022/06/12 13:23:05;;;;;;;6.63;2.30;;;;;;;;;;5002704;28;20512;-80
2022/06/12 13:25:33;;;;;;;5.70;2.60;;;;;;;;;;5000992;28;20525;-81
2022/06/12 13:28:01;;;;;;;7.33;3.10;;;;;;;;;;5002527;28;20474;-81
2022/06/12 13:30:28;;;;;;;5.50;3.17;;;;;;;;;;5000302;28;20477;-81
2022/06/12 13:32:54;;;;;;;11.50;4.27;;;;;;;;;;5000801;28;20498;-82
2022/06/12 13:35:29;;;;;;;7.13;3.53;;;;;;;;;;5001606;28;20470;-82
2022/06/12 13:37:56;;;;;;;6.57;2.90;;;;;;;;;;5000834;28;20576;-84
2022/06/12 13:40:25;;;;;;;9.30;3.53;;;;;;;;;;5000328;28;20466;-80
2022/06/12 13:42:51;;;;;;;6.87;3.67;;;;;;;;;;5001345;28;20485;-83
2022/06/12 13:45:19;;;;;;;6.67;3.13;;;;;;;;;;5004560;28;20459;-81
2022/06/12 13:47:46;;;;;;;8.03;3.50;;;;;;;;;;5005136;28;20593;-82
2022/06/12 13:50:18;;;;;;;8.63;4.10;;;;;;;;;;5005439;28;20597;-82
2022/06/12 13:52:50;;;;;;;8.43;3.57;;;;;;;;;;5006063;28;20492;-78
2022/06/12 13:55:20;;;;;;;4.87;2.50;;;;;;;;;;5003620;28;20995;-80
2022/06/12 13:57:48;;;;;;;7.90;3.20;;;;;;;;;;5005351;28;20999;-82
2022/06/12 14:00:27;;;;;;;4.77;2.83;;;;;;;;;;5003835;28;20469;-82
2022/06/12 14:02:54;;;;;;;8.00;3.40;;;;;;;;;;5005209;28;20452;-81
2022/06/12 14:05:21;;;;;;;4.97;2.90;;;;;;;;;;5004862;28;20553;-80
2022/06/12 14:07:50;;;;;;;12.57;3.17;;;;;;;;;;5002990;28;20484;-80
2022/06/12 14:10:18;;;;;;;8.50;2.77;;;;;;;;;;5004708;28;20519;-82
2022/06/12 14:12:44;;;;;;;6.23;3.67;;;;;;;;;;5004958;28;20497;-81
2022/06/12 14:15:28;;;;;;;7.67;2.80;;;;;;;;;;5003800;28;20535;-79
2022/06/12 14:17:57;;;;;;;7.50;3.13;;;;;;;;;;5004245;28;20475;-80
2022/06/12 14:20:25;;;;;;;5.77;3.30;;;;;;;;;;5004504;28;21006;-81
2022/06/12 14:22:53;;;;;;;6.33;2.97;;;;;;;;;;5002930;28;21032;-81
2022/06/12 14:25:22;;;;;;;12.47;3.57;;;;;;;;;;5004449;28;21070;-81
2022/06/12 14:28:00;;;;;;;7.20;3.03;;;;;;;;;;5005787;28;20461;-81
2022/06/12 14:30:39;;;;;;;6.30;2.80;;;;;;;;;;5004773;28;20986;-82
2022/06/12 14:33:20;;;;;;;10.00;3.03;;;;;;;;;;5004646;28;20644;-81
2022/06/12 14:35:48;;;;;;;7.33;2.67;;;;;;;;;;5003058;28;20470;-80
2022/06/12 14:38:17;;;;;;;9.43;2.83;;;;;;;;;;5002351;28;20466;-81
2022/06/12 14:40:43;;;;;;;10.33;2.70;;;;;;;;;;5002661;28;20473;-80
2022/06/12 14:43:12;;;;;;;11.03;4.10;;;;;;;;;;5000919;28;20838;-83
2022/06/12 14:45:41;;;;;;;8.70;3.20;;;;;;;;;;5002271;28;20474;-81
2022/06/12 14:48:11;;;;;;;13.43;3.47;;;;;;;;;;5002995;28;20553;-82
2022/06/12 14:50:37;;;;;;;4.13;2.33;;;;;;;;;;5002190;28;20842;-84
2022/06/12 14:53:04;;;;;;;6.47;2.33;;;;;;;;;;5001328;28;20482;-83
2022/06/12 14:55:31;;;;;;;6.40;2.27;;;;;;;;;;5001221;28;20485;-81
2022/06/12 14:57:57;;;;;;;4.33;2.33;;;;;;;;;;5003416;28;20492;-82
2022/06/12 15:00:25;;;;;;;5.33;2.60;;;;;;;;;;4999050;28;20482;-83
2022/06/12 15:02:51;;;;;;;6.10;2.30;;;;;;;;;;5004354;28;20902;-82
2022/06/12 15:05:21;;;;;;;9.37;2.90;;;;;;;;;;5001855;28;20520;-80